Tiempo atmosférico en la estación meteorológica de Sta.Cruz de Tenerife, Santa Cruz de Tenerife (35 m.)



Fecha
DESCASC
Temp. máxima en grados centígrados (hora)
DESCASC
Temp. mínima en grados centígrados (hora)
DESCASC
Temp. media en grados centígrados
DESCASC
Racha de viento máxima en m/sg (hora)
DESCASC
Velocidad máxima media en intervalos de 10 minutos(hora)
DESCASC
Precipitaciones diarias en mm
DESCASC
Precipitaciones de 00:00 a 06:00 en mm
DESCASC
Precipitaciones de 06:00 a 12:00 en mm
DESCASC
Precipitaciones de 12:00 a 18:00 en mm
DESCASC
Precipitaciones de 18:00 a 24:00 en mm
DESCASC
16-06-2019 23.6 (15:00) 17.3 (07:00) 20.4 5.83 (15:50) 3.61 (13:50) 0 0 0 0 0
15-06-2019 23.6 (15:50) 18.2 (05:50) 20.9 7.78 (06:50) 5 (16:00) 0 0 0 0 0
14-06-2019 23.3 (14:50) 18.8 (06:10) 21 10 (15:40) 6.39 (11:40) 0 0 0 0 0
13-06-2019 25.1 (16:20) 19.4 (00:00) 22.3 9.44 (00:20) 5.56 (01:10) 0 0 0 0 0
12-06-2019 25.3 (16:10) 19 (00:00) 22.1 10.83 (16:10) 6.11 (15:00) 0 0 0 0 0
11-06-2019 24.3 (14:00) 19.5 (00:00) 21.9 14.17 (01:50) 6.39 (21:40) 0 0 0 0 0
10-06-2019 25.3 (15:00) 18.9 (00:00) 22.1 11.67 (14:20) 6.67 (16:40) 0 0 0 0 0
09-06-2019 24.3 (17:00) 19.2 (00:00) 21.8 11.11 (12:50) 6.11 (12:50) 0 0 0 0 0
08-06-2019 24.6 (14:30) 19.8 (00:00) 22.2 10.56 (17:10) 5.83 (17:20) 0 0 0 0 0
07-06-2019 25.3 (16:10) 19.2 (00:00) 22.3 10.56 (15:40) 5 (06:30) 0 0 0 0 0
06-06-2019 23.7 (17:00) 19.8 (00:00) 21.8 10.28 (17:40) 5.28 (16:30) 0 0 0 0 0
05-06-2019 26 (15:40) 21 (00:00) 23.5 11.94 (18:00) 6.11 (14:00) 0 0 0 0 0
04-06-2019 31.8 (16:10) 21.6 (00:00) 26.7 11.11 (16:50) 6.39 (20:20) 0 0 0 0 0
03-06-2019 33 (16:50) 22.1 (00:00) 27.6 9.44 (14:30) 5.83 (14:30) 0 0 0 0 0
02-06-2019 28.9 (17:00) 19.8 (00:00) 24.3 6.94 (15:10) 4.44 (15:20) 0 0 0 0 0
01-06-2019 25.4 (15:40) 19.1 (00:00) 22.3 8.06 (17:30) 5.83 (17:30) 0 0 0 0 0
31-05-2019 24.9 (17:20) 17.7 (00:00) 21.3 5.83 (15:00) 3.89 (13:00) 0 0 0 0 0
30-05-2019 24.6 (18:10) 18.2 (00:00) 21.4 6.11 (12:40) 4.17 (13:00) 0 0 0 0 0
29-05-2019 26.8 (18:20) 18.3 (00:00) 22.5 8.61 (17:50) 4.17 (17:50) 0 0 0 0 0
28-05-2019 27.4 (15:20) 19.4 (00:00) 23.4 8.61 (11:40) 5.83 (11:20) 0 0 0 0 0
27-05-2019 30.9 (16:30) 19.9 (00:00) 25.4 9.72 (19:20) 5.56 (19:20) 0 0 0 0 0
26-05-2019 28.4 (17:00) 18.4 (00:00) 23.4 11.67 (00:20) 6.11 (00:40) 0 0 0 0 0
25-05-2019 25.9 (15:00) 19.5 (00:00) 22.7 13.06 (20:10) 7.78 (20:10) 0 0 0 0 0
24-05-2019 26.6 (14:50) 19.2 (00:00) 22.9 10.56 (16:30) 5.83 (16:00) 0 0 0 0 0
23-05-2019 25.5 (15:20) 20 (00:00) 22.8 14.17 (17:30) 7.22 (18:50) 0 0 0 0 0
22-05-2019 25.3 (15:40) 19.6 (00:00) 22.4 11.94 (17:40) 6.39 (13:40) 0 0 0 0 0

Gráficas

Temp. máximas Temp. mínimas Temp. medias Precipitaciones Rachas de viento máximas Velocidades máximas media en intervalos de 10 minutos

Datos horarios

Fecha y hora oficial Temperatura (ºC) Velocidad del viento (km/h) Dirección del viento Racha (km/h) Dirección de racha Precipitación (mm) Presión (hPa) Tendencia (hPa) Humedad (%)
2019-06-20 23:00:00 22.5 11 Norte 28 Noroeste 0 1015.3 1.5 60
2019-06-20 22:00:00 22.9 10 Norte 22 Norte 0 1014.8 1.1 61
2019-06-20 21:00:00 23.3 9 Norte 27 Noroeste 0 1014.2 0.4 59
2019-06-20 20:00:00 24 12 Norte 27 Noroeste 0 1013.8 0.1 55
2019-06-20 19:00:00 24.3 18 Noroeste 37 Noroeste 0 1013.7 0 53
2019-06-20 18:00:00 25.5 12 Norte 32 Norte 0 1013.8 0 52
2019-06-20 17:00:00 26.6 17 Norte 36 Norte 0 1013.7 -0.3 47
2019-06-20 16:00:00 27.2 15 Norte 32 Norte 0 1013.7 -0.8 44
2019-06-20 15:00:00 26.8 14 Nordeste 35 Nordeste 0 1013.8 -1.2 46
2019-06-20 14:00:00 27.1 13 Nordeste 36 Norte 0 1014 -0.9 47
2019-06-20 13:00:00 27.2 10 Norte 24 Noroeste 0 1014.5 -0.2 47
2019-06-20 12:00:00 26.4 12 Nordeste 23 Nordeste 0 1015 0.5 49
2019-06-20 11:00:00 25.1 9 Noroeste 21 Norte 0 1014.9 0.8 55
2019-06-20 10:00:00 23.4 7 Norte 17 Noroeste 0 1014.7 0.8 62
2019-06-20 09:00:00 22.9 9 Noroeste 19 Noroeste 0 1014.5 0.9 65
2019-06-20 08:00:00 22.2 10 Noroeste 24 Noroeste 0 1014.1 0.2 69
2019-06-20 07:00:00 21.6 14 Noroeste 25 Noroeste 0 1013.9 -0.3 67
2019-06-20 06:00:00 21.4 15 Noroeste 31 Noroeste 0 1013.6 -1 69
2019-06-20 05:00:00 21.2 10 Oeste 23 Oeste 0 1013.9 -1.3 69
2019-06-20 04:00:00 21.4 9 Noroeste 21 Norte 0 1014.2 -1.3 65
2019-06-20 03:00:00 21.5 8 Noroeste 15 Norte 0 1014.6 -0.8 67
2019-06-20 02:00:00 21.6 8 Noroeste 19 Noroeste 0 1015.2 0.1 67
2019-06-20 01:00:00 22.1 11 Noroeste 21 Norte 0 1015.5 0.8 66
2019-06-20 00:00:00 22.2 11 Noroeste 24 Noroeste 0 1015.4 1.2 64
2019-06-19 23:00:00 22.5 11 Oeste 20 Noroeste 0 1015.1 1.5 64
2019-06-19 22:00:00 23.1 8 Noroeste 20 Oeste 0 1014.7 1.2 61
2019-06-19 21:00:00 23.6 12 Noroeste 21 Noroeste 0 1014.2 0.8 58
2019-06-19 20:00:00 24.6 10 Oeste 26 Oeste 0 1013.6 0.1 54
2019-06-19 19:00:00 26.5 18 Oeste 31 Noroeste 0 1013.5 -0.2 49
2019-06-19 18:00:00 27.9 17 Oeste 30 Oeste 0 1013.4 -0.6 44
2019-06-19 17:00:00 28.2 18 Oeste 31 Norte 0 1013.5 -1.1 43
2019-06-19 16:00:00 27.9 12 Noroeste 27 Norte 0 1013.7 -0.9 50
2019-06-19 15:00:00 26.6 15 Sur 24 Sur 0 1014 -0.7 54
2019-06-19 14:00:00 27.6 15 Sudoeste 26 Sur 0 1014.6 0.1 49
2019-06-19 13:00:00 26.4 12 Sur 20 Sudeste 0 1014.6 0.7 57
2019-06-19 12:00:00 26 8 Este 27 Noroeste 0 1014.7 1.1 61
2019-06-19 11:00:00 25.3 13 Noroeste 31 Noroeste 0 1014.5 1 53
2019-06-19 10:00:00 24.5 11 Noroeste 26 Noroeste 0 1013.9 0.7 58
2019-06-19 09:00:00 23.6 13 Norte 22 Norte 0 1013.6 0.9 61
2019-06-19 08:00:00 22.1 5 Noroeste 18 Noroeste 0 1013.5 0.7 68
2019-06-19 07:00:00 21.7 8 Noroeste 16 Noroeste 0 1013.2 0.3 68
2019-06-19 06:00:00 22 6 Oeste 26 Noroeste 0 1012.7 -0.3 69
2019-06-19 05:00:00 22.1 13 Norte 27 Norte 0 1012.8 -0.6 67
2019-06-19 04:00:00 21.8 6 Noroeste 14 Noroeste 0 1012.9 -0.9 72
2019-06-19 03:00:00 21.4 4 Sudeste 9 Nordeste 0 1013 -1.1 82
2019-06-19 02:00:00 21.6 4 Oeste 9 Sur 0 1013.4 -0.4 80
2019-06-19 01:00:00 21.9 4 Sur 8 Sur 0 1013.8 0 82
2019-06-19 00:00:00 22 6 Sur 11 Sur 0 1014.1 0.7 83
2019-06-18 23:00:00 22.4 5 Sur 11 Sur 0 1013.8 0.5 81
2019-06-18 22:00:00 22.5 3 Sur 8 Sudeste 0 1013.8 0.7 79
2019-06-18 21:00:00 22.8 4 Sudeste 9 Este 0 1013.4 0.2 78
2019-06-18 20:00:00 23.1 5 Sur 13 Sur 0 1013.3 -0.1 76
2019-06-18 19:00:00 23.4 8 Sur 14 Sur 0 1013.1 -0.2 74
2019-06-18 18:00:00 24.2 7 Sur 17 Sur 0 1013.2 -0.2 70
2019-06-18 17:00:00 24.7 11 Sur 17 Sur 0 1013.4 -0.1 68
2019-06-18 16:00:00 24.7 9 Sudeste 15 Sur 0 1013.3 -0.5 68
2019-06-18 15:00:00 25.2 8 Sudeste 19 Sur 0 1013.4 -0.5 66
2019-06-18 14:00:00 26.2 11 Sur 21 Sur 0 1013.5 -0.1 65
2019-06-18 13:00:00 25.6 9 Sur 18 Sur 0 1013.8 0.4 68
2019-06-18 12:00:00 25.7 8 Sur 14 Sudoeste 0 1013.9 0.9 62
2019-06-18 11:00:00 25.1 9 Sur 14 Sur 0 1013.6 0.9 62
2019-06-18 10:00:00 23.3 6 Sur 13 Sudoeste 0 1013.4 1.2 68
2019-06-18 09:00:00 22.7 3 Sudeste 8 Sudeste 0 1013 1.2 74
2019-06-18 08:00:00 20.6 0 Calma 6 Oeste 0 1012.7 1 85
2019-06-18 07:00:00 19.5 2 Sudoeste 5 Oeste 0 1012.2 0.3 78
2019-06-18 06:00:00 19.5 4 Oeste 6 Oeste 0 1011.8 -0.4 78
2019-06-18 05:00:00 19.6 0 Calma 3 Este 0 1011.7 -1 83
2019-06-18 04:00:00 19.8 2 Sudeste 5 Este 0 1011.9 -1.5 79
2019-06-18 03:00:00 20.1 4 Este 5 Este 0 1012.2 -1.5 82
2019-06-18 02:00:00 20.7 3 Este 7 Este 0 1012.7 -1 79
2019-06-18 01:00:00 20.9 4 Este 6 Nordeste 0 1013.4 -0.1 80
2019-06-18 00:00:00 20.8 2 Sudeste 7 Este 0 1013.7 0.5 81
2019-06-17 23:00:00 20.9 3 Sudeste 6 Sudeste 0 1013.7 0.7 80
2019-06-17 22:00:00 21.3 4 Sudeste 8 Sudeste 0 1013.5 0.4 77
2019-06-17 21:00:00 21.8 3 Sudeste 11 Este 0 1013.2 0 74
2019-06-17 20:00:00 22.5 6 Sur 13 Este 0 1013 -0.5 65
2019-06-17 19:00:00 23.9 8 Sudeste 16 Sudeste 0 1013.1 -0.6 62
2019-06-17 18:00:00 24.2 10 Sudeste 17 Sudeste 0 1013.2 -0.6 63
2019-06-17 17:00:00 24.7 9 Sur 19 Sudeste 0 1013.5 -0.6 63
2019-06-17 16:00:00 24.6 10 Sudeste 18 Sudeste 0 1013.7 -0.9 64
2019-06-17 15:00:00 23.7 12 Sudeste 18 Sudeste 0 1013.8 -0.7 64
2019-06-17 14:00:00 24.1 12 Sudeste 21 Sudeste 0 1014.1 -0.3 65
2019-06-17 13:00:00 23.3 8 Sudeste 17 Sudeste 0 1014.6 0.4 65
2019-06-17 12:00:00 23.2 9 Sudeste 15 Sudeste 0 1014.5 0.5 65
2019-06-17 11:00:00 23 10 Sudeste 15 Sudeste 0 1014.4 0.5 66
2019-06-17 10:00:00 22.2 9 Sudeste 13 Sur 0 1014.2 0.4 67
2019-06-17 09:00:00 21.2 4 Sudoeste 9 Sudeste 0 1014 0.3 67
2019-06-17 08:00:00 19 3 Noroeste 5 Noroeste 0 1013.9 0 67
2019-06-17 07:00:00 18.4 3 Noroeste 7 Sudoeste 0 1013.8 -0.6 78
2019-06-17 06:00:00 18.3 3 Oeste 10 Oeste 0 1013.7 -0.9 71
2019-06-17 05:00:00 18.9 7 Oeste 11 Oeste 0 1013.9 -1.6 72
2019-06-17 04:00:00 19 5 Oeste 7 Noroeste 0 1014.4 -1.6 74
2019-06-17 03:00:00 19.4 2 Este 6 Este 0 1014.6 -2 77
2019-06-17 02:00:00 19.6 3 Sur 7 Este 0 1015.5 -0.5 76
2019-06-17 01:00:00 20.1 5 Este 8 Este 0 1016 0.5 73
2019-06-17 00:00:00 20.4 6 Sudeste 11 Sudeste 0 1016.6 1.4 72
2019-06-16 23:00:00 20.5 5 Sudeste 10 Este 0 1016 0.9 72
2019-06-16 22:00:00 20.5 7 Sudeste 13 Este 0 1015.5 0.6 72
2019-06-16 21:00:00 20.7 8 Este 13 Este 0 1015.2 0.4 70
2019-06-16 20:00:00 21.1 7 Este 14 Este 0 1015.1 0 68
2019-06-16 19:00:00 21.9 8 Este 16 Este 0 1014.9 -0.5 64
2019-06-16 18:00:00 22.7 10 Este 19 Este 0 1014.8 -1.1 61
2019-06-16 17:00:00 22.8 9 Este 18 Este 0 1015.1 -1.2 61
2019-06-16 16:00:00 22.7 10 Este 21 Este 0 1015.4 -1.1 60
2019-06-16 15:00:00 23.2 10 Este 19 Este 0 1015.9 -0.4 58
2019-06-16 14:00:00 22.7 11 Este 18 Sudeste 0 1016.3 0.2 61
2019-06-16 13:00:00 22.7 12 Este 18 Este 0 1016.5 0.6 60
2019-06-16 12:00:00 22.5 10 Este 17 Este 0 1016.3 0.6 62
2019-06-16 11:00:00 22.2 11 Este 15 Este 0 1016.1 1.1 61
2019-06-16 10:00:00 21.6 9 Este 14 Este 0 1015.9 1.2 63
2019-06-16 09:00:00 21.2 3 Nordeste 9 Oeste 0 1015.7 1.2 56
2019-06-16 08:00:00 18.1 8 Oeste 13 Oeste 0 1015 0.7 66
2019-06-16 07:00:00 17.4 6 Oeste 13 Oeste 0 1014.7 0.3 67
2019-06-16 06:00:00 17.5 8 Oeste 14 Oeste 0 1014.5 -0.7 69
2019-06-16 05:00:00 17.7 9 Oeste 14 Oeste 0 1014.3 -1.4 72
2019-06-16 04:00:00 18 8 Oeste 12 Oeste 0 1014.4 -1.6 71
2019-06-16 03:00:00 18.3 5 Noroeste 12 Oeste 0 1015.2 -1.1 69
2019-06-16 02:00:00 18.6 5 Oeste 11 Noroeste 0 1015.7 -0.1 67
2019-06-16 01:00:00 19 3 Sudoeste 12 Este 0 1016 0.8 66
2019-06-16 00:00:00 19.5 4 Este 11 Este 0 1016.3 1.7 64
2019-06-15 23:00:00 19.9 5 Este 15 Nordeste 0 1015.8 1.3 60
2019-06-15 22:00:00 20.5 10 Nordeste 17 Nordeste 0 1015.2 1.2 55
2019-06-15 21:00:00 21 6 Nordeste 26 Este 0 1014.6 0.3 54
2019-06-15 20:00:00 20.8 13 Este 25 Este 0 1014.5 -0.2 62
2019-06-15 19:00:00 21.3 14 Este 28 Este 0 1014 -1 62
2019-06-15 18:00:00 22 13 Este 25 Este 0 1014.3 -0.8 57
2019-06-15 17:00:00 22.4 17 Este 26 Este 0 1014.7 -0.8 57
2019-06-15 16:00:00 23.2 18 Este 26 Este 0 1015 -0.8 56
2019-06-15 15:00:00 23.1 15 Este 24 Este 0 1015.1 -1 54
2019-06-15 14:00:00 23.2 13 Este 23 Sudeste 0 1015.5 -0.3 54
2019-06-15 13:00:00 22.6 13 Este 20 Este 0 1015.8 0.5 55
2019-06-15 12:00:00 22 15 Este 22 Este 0 1016.1 1 60
2019-06-15 11:00:00 21.3 13 Este 21 Este 0 1015.8 0.9 61
2019-06-15 10:00:00 21.8 13 Este 26 Este 0 1015.3 0.8 58
2019-06-15 09:00:00 20.8 13 Este 23 Este 0 1015.1 0.8 60
2019-06-15 08:00:00 19.5 10 Este 24 Este 0 1014.9 0.5 61
2019-06-15 07:00:00 19.2 14 Este 28 Nordeste 0 1014.5 -0.1 68
2019-06-15 06:00:00 18.3 4 Sudeste 10 Nordeste 0 1014.3 -0.7 67
2019-06-15 05:00:00 18.5 4 Este 17 Norte 0 1014.4 -1.3 63
2019-06-15 04:00:00 18.5 8 Norte 17 Norte 0 1014.6 -1.4 64
2019-06-15 03:00:00 18.5 5 Norte 11 Nordeste 0 1015 -1.1 63
2019-06-15 02:00:00 18.9 7 Nordeste 13 Este 0 1015.7 0 62
2019-06-15 01:00:00 19.2 5 Norte 14 Nordeste 0 1016 0.6 61
2019-06-15 00:00:00 19.4 4 Nordeste 13 Nordeste 0 1016.1 1.3 62
2019-06-14 23:00:00 19.8 4 Nordeste 17 Nordeste 0 1015.7 1.4 61
2019-06-14 22:00:00 20.2 8 Nordeste 24 Nordeste 0 1015.4 1.2 58
2019-06-14 21:00:00 20.8 9 Nordeste 30 Este 0 1014.8 0.6 52
2019-06-14 20:00:00 21.1 15 Este 30 Este 0 1014.3 0 67
2019-06-14 19:00:00 21.9 16 Este 32 Este 0 1014.2 -0.2 54
2019-06-14 18:00:00 22 15 Este 33 Este 0 1014.2 -0.5 61
2019-06-14 17:00:00 22.3 17 Este 34 Este 0 1014.3 -0.7 58
2019-06-14 16:00:00 21.9 19 Este 36 Este 0 1014.4 -0.9 58
2019-06-14 15:00:00 22.5 20 Este 35 Este 0 1014.7 -0.7 57
2019-06-14 14:00:00 22.2 18 Este 35 Este 0 1015 -0.2 56
2019-06-14 13:00:00 22.5 20 Este 32 Este 0 1015.3 0.3 56
2019-06-14 12:00:00 22 18 Este 30 Este 0 1015.4 1.2 57
2019-06-14 11:00:00 22 18 Este 24 Este 0 1015.2 1.3 60
2019-06-14 10:00:00 20.6 10 Este 17 Nordeste 0 1015 1.4 65
2019-06-14 09:00:00 20.2 6 Este 11 Este 0 1014.2 1 62
2019-06-14 08:00:00 19.6 5 Este 9 Nordeste 0 1013.9 1.3 64
2019-06-14 07:00:00 19.1 3 Oeste 5 Oeste 0 1013.6 1 62
2019-06-14 06:00:00 18.9 2 Noroeste 16 Noroeste 0 1013.2 0.3 64
2019-06-14 05:00:00 19.1 6 Noroeste 17 Norte 0 1012.6 -1 63
2019-06-14 04:00:00 19.5 10 Norte 18 Norte 0 1012.6 -1.5 60
2019-06-14 03:00:00 19.7 4 Noroeste 13 Nordeste 0 1012.9 -1.2 60
2019-06-14 02:00:00 19.7 7 Nordeste 15 Nordeste 0 1013.6 -0.8 65
2019-06-14 01:00:00 19.7 3 Nordeste 11 Nordeste 0 1014.1 0.5 68
2019-06-14 00:00:00 19.9 8 Noroeste 14 Noroeste 0 1014.1 1.3 61
2019-06-13 23:00:00 20 6 Noroeste 15 Nordeste 0 1014.4 2.1 57
2019-06-13 22:00:00 20.4 8 Nordeste 20 Nordeste 0 1013.6 1.4 59
2019-06-13 21:00:00 20.8 15 Nordeste 26 Nordeste 0 1012.8 0.9 54
2019-06-13 20:00:00 21.9 12 Nordeste 23 Nordeste 0 1012.3 0.6 53
2019-06-13 19:00:00 22.9 10 Norte 25 Norte 0 1012.2 0.4 51
2019-06-13 18:00:00 22.9 13 Norte 31 Nordeste 0 1011.9 -0.2 50
2019-06-13 17:00:00 24.4 15 Norte 30 Norte 0 1011.7 -0.6 45
2019-06-13 16:00:00 24.3 14 Noroeste 28 Noroeste 0 1011.8 -0.7 42
2019-06-13 15:00:00 24.3 15 Noroeste 33 Noroeste 0 1012.1 -0.5 44
2019-06-13 14:00:00 24.4 15 Noroeste 31 Noroeste 0 1012.3 0 43
2019-06-13 13:00:00 23.8 12 Norte 29 Noroeste 0 1012.5 0.6 43
2019-06-13 12:00:00 23.6 10 Norte 26 Norte 0 1012.6 1.2 46
2019-06-13 11:00:00 22.2 6 Norte 21 Noroeste 0 1012.3 1.5 52
2019-06-13 10:00:00 20.5 11 Noroeste 23 Noroeste 0 1011.9 1.4 56
2019-06-13 09:00:00 20 9 Noroeste 21 Oeste 0 1011.4 1 60
2019-06-13 08:00:00 19.7 9 Noroeste 22 Norte 0 1010.8 0.7 61
2019-06-13 07:00:00 19.6 11 Noroeste 26 Noroeste 0 1010.5 0.1 61
2019-06-13 06:00:00 19.6 14 Noroeste 32 Oeste 0 1010.4 -0.3 58
2019-06-13 05:00:00 19.7 8 Norte 22 Norte 0 1010.1 -1.1 60
2019-06-13 04:00:00 19.7 14 Noroeste 23 Noroeste 0 1010.4 -1.2 64
2019-06-13 03:00:00 19.4 9 Noroeste 23 Norte 0 1010.7 -1 62
2019-06-13 02:00:00 19.7 9 Norte 31 Norte 0 1011.2 -0.2 60
2019-06-13 01:00:00 20 19 Norte 34 Noroeste 0 1011.6 0.7 59
2019-06-13 00:00:00 19.9 16 Noroeste 31 Norte 0 1011.7 1.4 62
2019-06-12 23:00:00 19.8 19 Noroeste 32 Noroeste 0 1011.4 1.8 63
2019-06-12 22:00:00 20.2 9 Norte 23 Noroeste 0 1010.9 1.6 61
2019-06-12 21:00:00 20.8 12 Noroeste 32 Noroeste 0 1010.3 1 63
2019-06-12 20:00:00 21.9 8 Norte 30 Norte 0 1009.6 -0.1 62
2019-06-12 19:00:00 22.7 15 Norte 36 Norte 0 1009.3 -0.8 55
2019-06-12 18:00:00 23.8 19 Norte 39 Norte 0 1009.3 -1.2 52
2019-06-12 17:00:00 24.8 15 Norte 39 Norte 0 1009.7 -0.9 50
2019-06-12 16:00:00 25.2 13 Norte 36 Norte 0 1010.1 -0.8 46
2019-06-12 15:00:00 24.6 22 Norte 35 Norte 0 1010.5 -0.7 47
2019-06-12 14:00:00 24.4 16 Norte 37 Nordeste 0 1010.6 -0.4 52
2019-06-12 13:00:00 23.2 15 Nordeste 30 Nordeste 0 1010.9 0.3 57
2019-06-12 12:00:00 22.9 13 Nordeste 28 Nordeste 0 1011.2 0.6 66
2019-06-12 11:00:00 20.3 9 Este 20 Nordeste 0 1011 0.9 79
2019-06-12 10:00:00 20.1 9 Nordeste 17 Nordeste 0 1010.6 0.9 85
2019-06-12 09:00:00 19.7 6 Este 15 Este 0 1010.6 1.1 83
2019-06-12 08:00:00 19.8 8 Nordeste 19 Norte 0 1010.1 0.4 79
2019-06-12 07:00:00 19.9 5 Norte 25 Norte 0 1009.7 -0.4 75
2019-06-12 06:00:00 19.8 14 Norte 31 Norte 0 1009.5 -1.2 76
2019-06-12 05:00:00 19 8 Nordeste 19 Este 0 1009.7 -1.6 86
2019-06-12 04:00:00 19.8 5 Este 22 Nordeste 0 1010.1 -1.6 76
2019-06-12 03:00:00 20.1 12 Noroeste 22 Noroeste 0 1010.7 -1.2 73
2019-06-12 02:00:00 20.3 11 Nordeste 21 Norte 0 1011.3 -0.6 74
2019-06-12 01:00:00 20.5 10 Norte 24 Norte 0 1011.7 0 71
2019-06-12 00:00:00 20.7 7 Norte 26 Norte 0 1011.9 0.3 70
2019-06-11 23:00:00 20.8 18 Norte 45 Noroeste 0 1011.9 0.5 69
2019-06-11 22:00:00 20.8 17 Norte 40 Norte 0 1011.7 0.3 71
2019-06-11 21:00:00 21.1 11 Norte 37 Norte 0 1011.6 0.1 72
2019-06-11 20:00:00 21.8 18 Noroeste 36 Noroeste 0 1011.4 -0.6 66
2019-06-11 19:00:00 23 14 Norte 33 Norte 0 1011.4 -0.8 61
2019-06-11 18:00:00 23.4 18 Norte 33 Norte 0 1011.5 -1.1 60
2019-06-11 17:00:00 22.7 13 Nordeste 32 Norte 0 1012 -1 68
2019-06-11 16:00:00 24 13 Nordeste 37 Norte 0 1012.2 -1 62
2019-06-11 15:00:00 22.1 11 Este 29 Noroeste 0 1012.6 -0.7 76
2019-06-11 14:00:00 24.2 17 Noroeste 33 Noroeste 0 1013 -0.4 59
2019-06-11 13:00:00 22.5 13 Norte 34 Nordeste 0 1013.2 0 68
2019-06-11 12:00:00 22.4 12 Norte 24 Nordeste 0 1013.3 0 68
2019-06-11 11:00:00 21.2 12 Norte 28 Norte 0 1013.4 -0.1 75
2019-06-11 10:00:00 21.8 12 Noroeste 31 Norte 0 1013.2 -0.4 66
2019-06-11 09:00:00 20.6 10 Norte 33 Noroeste 0 1013.3 0.1 66
2019-06-11 08:00:00 20 12 Norte 35 Noroeste 0 1013.5 0 66
2019-06-11 07:00:00 19.6 12 Norte 31 Norte 0 1013.6 -0.2 66
2019-06-11 06:00:00 19.7 10 Norte 28 Noroeste 0 1013.2 -0.9 66
2019-06-11 05:00:00 19.5 7 Nordeste 33 Noroeste 0 1013.5 -1.2 64
2019-06-11 04:00:00 19.7 22 Noroeste 42 Nordeste 0 1013.8 -1.4 62
2019-06-11 03:00:00 19.6 14 Norte 37 Norte 0 1014.1 -1.6 62
2019-06-11 02:00:00 19.8 9 Sudeste 51 Norte 0 1014.7 -0.7 62
2019-06-11 01:00:00 20 13 Norte 36 Noroeste 0 1015.2 -0.1 62
2019-06-11 00:00:00 20 17 Norte 41 Norte 0 1015.7 0.8 61
2019-06-10 23:00:00 20.2 7 Norte 31 Noroeste 0 1015.4 0.5 63
2019-06-10 22:00:00 20.5 19 Norte 39 Norte 0 1015.3 0.4 64
2019-06-10 21:00:00 21.1 14 Norte 35 Nordeste 0 1014.9 0 60
2019-06-10 20:00:00 21.5 12 Norte 37 Norte 0 1014.9 -0.3 60
2019-06-10 19:00:00 21.7 13 Norte 32 Norte 0 1014.9 -0.4 60
2019-06-10 18:00:00 22.5 22 Norte 36 Norte 0 1014.9 -0.8 59
2019-06-10 17:00:00 24.8 13 Norte 42 Norte 0 1015.2 -1.2 46
2019-06-10 16:00:00 24.3 17 Norte 39 Norte 0 1015.3 -1.5 49
2019-06-10 15:00:00 24.8 18 Norte 42 Norte 0 1015.7 -1.6 50
2019-06-10 14:00:00 25.1 16 Norte 40 Norte 0 1016.4 -1.2 49
2019-06-10 13:00:00 24.2 17 Norte 37 Norte 0 1016.8 -0.7 50
2019-06-10 12:00:00 23.4 13 Nordeste 32 Norte 0 1017.3 -0.3 51
2019-06-10 11:00:00 21.6 17 Norte 32 Nordeste 0 1017.6 0.3 59
2019-06-10 10:00:00 21 10 Nordeste 33 Norte 0 1017.5 0.4 59
2019-06-10 09:00:00 20.3 14 Norte 32 Nordeste 0 1017.6 0.6 62
2019-06-10 08:00:00 19.9 10 Nordeste 30 Norte 0 1017.3 0.3 65
2019-06-10 07:00:00 19.5 14 Norte 35 Norte 0 1017.1 0 64
2019-06-10 06:00:00 19.3 13 Norte 33 Norte 0 1017 -0.5 64
2019-06-10 05:00:00 18.9 5 Norte 13 Norte 0 1017 -1.1 65
2019-06-10 04:00:00 19 6 Nordeste 16 Este 0 1017.1 -1.5 67
2019-06-10 03:00:00 19.4 5 Norte 19 Nordeste 0 1017.5 -1.2 65
2019-06-10 02:00:00 19.5 6 Nordeste 32 Nordeste 0 1018.1 -0.4 64
2019-06-10 01:00:00 19.6 9 Nordeste 25 Nordeste 0 1018.6 0.5 64
2019-06-10 00:00:00 19.7 6 Nordeste 18 Nordeste 0 1018.7 0.7 64
2019-06-09 23:00:00 19.8 13 Norte 32 Norte 0 1018.5 1.1 62
2019-06-09 22:00:00 19.9 13 Norte 36 Nordeste 0 1018.1 0.8 62
2019-06-09 21:00:00 20.3 14 Norte 25 Norte 0 1018 0.9 61
2019-06-09 20:00:00 21.2 13 Norte 34 Nordeste 0 1017.4 0 58
2019-06-09 19:00:00 22.3 18 Nordeste 34 Nordeste 0 1017.3 -0.1 53
2019-06-09 18:00:00 23.5 18 Nordeste 36 Norte 0 1017.1 -0.7 47
2019-06-09 17:00:00 24 14 Nordeste 36 Nordeste 0 1017.4 -0.8 45
2019-06-09 16:00:00 23.5 18 Nordeste 40 Nordeste 0 1017.4 -1.5 49
2019-06-09 15:00:00 23.9 15 Nordeste 36 Norte 0 1017.8 -1.3 49
2019-06-09 14:00:00 24.1 12 Norte 37 Norte 0 1018.2 -0.3 47
2019-06-09 13:00:00 23.3 14 Norte 40 Norte 0 1018.9 0.5 46
2019-06-09 12:00:00 21.8 19 Norte 34 Norte 0 1019.1 0.7 53
2019-06-09 11:00:00 21.4 11 Nordeste 23 Nordeste 0 1018.5 0.6 57
2019-06-09 10:00:00 20.9 11 Norte 24 Nordeste 0 1018.4 0.9 52
2019-06-09 09:00:00 21.1 6 Nordeste 28 Nordeste 0 1018.4 1.1 54
2019-06-09 08:00:00 19.9 13 Nordeste 22 Nordeste 0 1017.9 0.7 58
2019-06-09 07:00:00 19.3 6 Nordeste 19 Este 0 1017.5 0.1 63
2019-06-09 06:00:00 19.3 6 Nordeste 24 Nordeste 0 1017.3 -0.5 61
2019-06-09 05:00:00 19.5 9 Nordeste 21 Nordeste 0 1017.2 -0.8 62
2019-06-09 04:00:00 19.4 8 Norte 21 Nordeste 0 1017.4 -0.7 60
2019-06-09 03:00:00 19.6 8 Nordeste 28 Nordeste 0 1017.8 -0.4 59
2019-06-09 02:00:00 19.7 9 Norte 21 Nordeste 0 1018 0.1 59
2019-06-09 01:00:00 20.1 8 Nordeste 18 Nordeste 0 1018.1 0.8 60
2019-06-09 00:00:00 20.2 9 Nordeste 17 Noroeste 0 1018.2 1.2 60
2019-06-08 23:00:00 20.5 7 Norte 18 Norte 0 1017.9 1.2 60
2019-06-08 22:00:00 20.6 14 Norte 28 Norte 0 1017.3 0.8 62
2019-06-08 21:00:00 20.9 12 Nordeste 23 Nordeste 0 1017 0.9 60
2019-06-08 20:00:00 21.4 10 Norte 30 Norte 0 1016.7 0.7 59
2019-06-08 19:00:00 21.9 12 Norte 34 Nordeste 0 1016.5 0.4 58
2019-06-08 18:00:00 22.8 17 Nordeste 38 Nordeste 0 1016.1 -0.4 52
2019-06-08 17:00:00 23.1 18 Nordeste 37 Nordeste 0 1016 -0.4 51
2019-06-08 16:00:00 24.1 17 Nordeste 33 Nordeste 0 1016.1 -0.4 47
2019-06-08 15:00:00 24.2 14 Nordeste 32 Norte 0 1016.5 -0.2 45
2019-06-08 14:00:00 24.4 14 Nordeste 30 Nordeste 0 1016.4 0.1 48
2019-06-08 13:00:00 24 10 Nordeste 32 Nordeste 0 1016.5 0.3 51
2019-06-08 12:00:00 22.9 14 Nordeste 30 Nordeste 0 1016.7 0.7 61
2019-06-08 11:00:00 21.7 17 Nordeste 33 Nordeste 0 1016.3 0.7 63
2019-06-08 10:00:00 21.3 17 Nordeste 30 Nordeste 0 1016.2 0.9 62
2019-06-08 09:00:00 20.3 14 Nordeste 27 Nordeste 0 1016 1 69
2019-06-08 08:00:00 19.9 8 Nordeste 18 Nordeste 0 1015.6 0.9 76
2019-06-08 07:00:00 19.9 9 Norte 21 Norte 0 1015.3 0.7 73
2019-06-08 06:00:00 19.8 4 Noroeste 26 Nordeste 0 1015 0.5 81
2019-06-08 05:00:00 20.2 4 Noroeste 15 Norte 0 1014.7 0.1 77
2019-06-08 04:00:00 20.3 8 Este 17 Nordeste 0 1014.6 -0.2 81
2019-06-08 03:00:00 21 12 Nordeste 19 Nordeste 0 1014.5 -0.4 75
2019-06-08 02:00:00 21.3 7 Norte 22 Nordeste 0 1014.6 0 68
2019-06-08 01:00:00 21.5 11 Norte 25 Norte 0 1014.8 0.7 67
2019-06-08 00:00:00 21.5 8 Norte 23 Noroeste 0 1014.9 0.9 68
2019-06-07 23:00:00 21.5 11 Noroeste 25 Noroeste 0 1014.6 0.9 65
2019-06-07 22:00:00 21.5 11 Noroeste 21 Noroeste 0 1014.1 0.5 62
2019-06-07 21:00:00 21.9 9 Noroeste 28 Norte 0 1014 0.3 65
2019-06-07 20:00:00 22.7 14 Noroeste 23 Norte 0 1013.7 0.2 58
2019-06-07 19:00:00 24.8 7 Norte 19 Norte 0 1013.6 -0.2 51
2019-06-07 18:00:00 24.3 12 Nordeste 25 Nordeste 0 1013.7 -0.2 53
2019-06-07 17:00:00 24.1 13 Nordeste 30 Nordeste 0 1013.5 -0.7 54
2019-06-07 16:00:00 25 13 Nordeste 38 Nordeste 0 1013.8 -0.8 52
2019-06-07 15:00:00 24.2 13 Nordeste 28 Nordeste 0 1013.9 -0.2 50
2019-06-07 14:00:00 24.4 8 Nordeste 26 Norte 0 1014.2 0.2 54
2019-06-07 13:00:00 22.5 11 Norte 25 Nordeste 0 1014.6 0.3 61
2019-06-07 12:00:00 22.7 15 Este 27 Este 0 1014.1 0.4 58
2019-06-07 11:00:00 23 8 Nordeste 19 Nordeste 0 1014 0.6 54
2019-06-07 10:00:00 20.9 8 Nordeste 21 Norte 0 1014.3 1.3 63
2019-06-07 09:00:00 20.3 12 Norte 23 Norte 0 1013.7 1.1 62
2019-06-07 08:00:00 19.7 6 Norte 17 Norte 0 1013.4 0.9 63
2019-06-07 07:00:00 19.3 12 Norte 29 Norte 0 1013 0.4 63
2019-06-07 06:00:00 19.4 12 Noroeste 27 Noroeste 0 1012.6 -0.5 62
2019-06-07 05:00:00 19.5 9 Noroeste 19 Noroeste 0 1012.5 -1.3 63
2019-06-07 04:00:00 19.5 13 Noroeste 21 Noroeste 0 1012.6 -1.5 66
2019-06-07 03:00:00 19.4 10 Oeste 26 Noroeste 0 1013.1 -1.1 62
2019-06-07 02:00:00 19.5 11 Noroeste 24 Noroeste 0 1013.8 -0.1 60
2019-06-07 01:00:00 19.7 10 Noroeste 24 Norte 0 1014.1 0.6 59
2019-06-07 00:00:00 19.9 6 Norte 24 Oeste 0 1014.2 0.9 58
2019-06-06 23:00:00 19.9 13 Noroeste 29 Norte 0 1013.9 1.2 58
2019-06-06 22:00:00 19.9 12 Noroeste 31 Noroeste 0 1013.5 0.8 57
2019-06-06 21:00:00 20.3 15 Norte 32 Noroeste 0 1013.3 0.5 55
2019-06-06 20:00:00 21.1 16 Norte 33 Norte 0 1012.7 0 52
2019-06-06 19:00:00 22.7 18 Noroeste 36 Noroeste 0 1012.7 -0.2 46
2019-06-06 18:00:00 23.5 16 Norte 37 Norte 0 1012.8 -0.3 45
2019-06-06 17:00:00 23.7 16 Norte 36 Norte 0 1012.7 -0.9 47
2019-06-06 16:00:00 23.4 14 Nordeste 32 Norte 0 1012.9 -1 46
2019-06-06 15:00:00 22.6 16 Norte 32 Norte 0 1013.1 -0.8 49
2019-06-06 14:00:00 22.1 14 Norte 33 Norte 0 1013.6 0.3 51
2019-06-06 13:00:00 20.8 11 Nordeste 31 Norte 0 1013.9 0.5 64
2019-06-06 12:00:00 21.6 10 Nordeste 26 Nordeste 0 1013.9 0.9 59
2019-06-06 11:00:00 22 16 Nordeste 32 Nordeste 0 1013.3 0.5 51
2019-06-06 10:00:00 22.4 13 Nordeste 32 Norte 0 1013.4 0.8 43
2019-06-06 09:00:00 20.8 6 Nordeste 18 Norte -- 1013 0.5 52
2019-06-06 08:00:00 19.9 12 Norte 25 Nordeste 0 1012.8 0.3 56
2019-06-06 07:00:00 19.9 10 Norte 24 Noroeste 0 1012.6 -0.1 58
2019-06-06 06:00:00 20 10 Norte 21 Nordeste 0 1012.5 -0.6 58
2019-06-06 05:00:00 20.2 14 Norte 22 Nordeste 0 1012.5 -1 57
2019-06-06 04:00:00 20.3 7 Norte 26 Nordeste 0 1012.7 -1.3 57
2019-06-06 03:00:00 20.3 10 Norte 23 Norte 0 1013.1 -1 60
2019-06-06 02:00:00 20.4 8 Norte 25 Norte 0 1013.5 -0.4 61
2019-06-06 01:00:00 20.8 14 Norte 30 Norte 0 1014 0.3 61
2019-06-06 00:00:00 21.1 12 Norte 25 Norte 0 1014.1 0.9 61
2019-06-05 23:00:00 21.4 10 Norte 27 Norte 0 1013.9 1.1 59
2019-06-05 22:00:00 21.5 13 Norte 25 Nordeste 0 1013.7 1.1 59
2019-06-05 21:00:00 21.8 13 Norte 34 Norte 0 1013.2 0.2 59
2019-06-05 20:00:00 22.3 14 Nordeste 32 Nordeste 0 1012.8 -0.4 59
2019-06-05 19:00:00 23.7 17 Nordeste 37 Nordeste 0 1012.6 -0.9 53
2019-06-05 18:00:00 24.7 19 Nordeste 43 Nordeste 0 1013 -0.7 49
2019-06-05 17:00:00 24.4 17 Nordeste 40 Norte 0 1013.2 -0.4 52
2019-06-05 16:00:00 25.6 15 Norte 33 Nordeste 0 1013.5 -0.5 48
2019-06-05 15:00:00 25.5 18 Nordeste 36 Nordeste 0 1013.7 -0.3 49
2019-06-05 14:00:00 25.1 22 Nordeste 41 Nordeste 0 1013.6 -0.4 50
2019-06-05 13:00:00 24.9 14 Nordeste 28 Nordeste 0 1014 -0.1 53
2019-06-05 12:00:00 24.2 10 Norte 34 Norte 0 1014 0.2 54
2019-06-05 11:00:00 23.6 14 Norte 29 Norte 0 1014 0.4 54
2019-06-05 10:00:00 22.9 13 Nordeste 31 Nordeste 0 1014.1 0.8 60
2019-06-05 09:00:00 22.5 7 Nordeste 22 Norte 0 1013.8 0.7 63
2019-06-05 08:00:00 21.7 9 Nordeste 19 Nordeste 0 1013.6 0.3 68
2019-06-05 07:00:00 21.6 8 Nordeste 19 Nordeste 0 1013.3 -0.4 68
2019-06-05 06:00:00 21.4 8 Nordeste 18 Nordeste 0 1013.1 -0.8 69
2019-06-05 05:00:00 21.5 10 Nordeste 18 Nordeste 0 1013.3 -1.2 66
2019-06-05 04:00:00 21.6 10 Nordeste 23 Noroeste 0 1013.7 -1.3 68
2019-06-05 03:00:00 22 10 Norte 28 Norte 0 1013.9 -1.1 67
2019-06-05 02:00:00 21.9 13 Noroeste 28 Noroeste 0 1014.5 -0.2 70
2019-06-05 01:00:00 21.8 15 Noroeste 29 Norte 0 1015 0.6 66
2019-06-05 00:00:00 21.7 14 Noroeste 30 Norte 0 1015 1.4 64
2019-06-04 23:00:00 21.8 17 Norte 29 Norte 0 1014.7 1.8 65
2019-06-04 22:00:00 22.2 14 Norte 29 Norte 0 1014.4 1.8 62
2019-06-04 21:00:00 22.7 20 Norte 33 Norte 0 1013.6 1.1 56
2019-06-04 20:00:00 24.6 18 Norte 31 Noroeste 0 1012.9 0.5 45
2019-06-04 19:00:00 27.8 12 Noroeste 25 Noroeste 0 1012.6 0.3 30
2019-06-04 18:00:00 29.6 16 Norte 33 Norte 0 1012.5 -0.4 25
2019-06-04 17:00:00 30.6 14 Noroeste 40 Norte 0 1012.4 -0.7 21
2019-06-04 16:00:00 31.3 11 Sudoeste 29 Este 0 1012.3 -1 25
2019-06-04 15:00:00 28.2 16 Este 32 Este 0 1012.9 -0.4 40
2019-06-04 14:00:00 29.5 17 Nordeste 33 Nordeste 0 1013.1 0 25
2019-06-04 13:00:00 29 18 Este 36 Nordeste 0 1013.3 0.4 23
2019-06-04 12:00:00 29.9 18 Nordeste 37 Nordeste 0 1013.3 1 22
2019-06-04 11:00:00 29.6 14 Nordeste 29 Nordeste 0 1013.1 1.2 21
2019-06-04 10:00:00 28.9 16 Nordeste 28 Nordeste 0 1012.9 1.7 20
2019-06-04 09:00:00 27.3 18 Norte 34 Nordeste 0 1012.3 1.5 22
2019-06-04 08:00:00 25.6 10 Norte 19 Norte 0 1011.9 0.9 24
2019-06-04 07:00:00 24.8 5 Noroeste 14 Noroeste 0 1011.2 -0.1 25
2019-06-04 06:00:00 25.5 12 Norte 20 Norte 0 1010.8 -1.1 24
2019-06-04 05:00:00 25.5 13 Norte 19 Norte 0 1011 -1.3 23
2019-06-04 04:00:00 25.1 3 Este 26 Noroeste 0 1011.3 -1.5 25
2019-06-04 03:00:00 26 11 Noroeste 31 Noroeste 0 1011.9 -1.2 22
2019-06-04 02:00:00 26.3 7 Norte 18 Noroeste 0 1012.3 -0.5 21
2019-06-04 01:00:00 26.9 10 Noroeste 19 Noroeste 0 1012.8 0.8 20
2019-06-04 00:00:00 26.8 8 Norte 17 Norte 0 1013.1 1.7 20
2019-06-03 23:00:00 27 9 Norte 17 Nordeste 0 1012.8 2 22
2019-06-03 22:00:00 27.6 5 Norte 23 Nordeste 0 1012 1.4 23
2019-06-03 21:00:00 28.7 8 Nordeste 22 Nordeste 0 1011.4 1 22
2019-06-03 20:00:00 29.9 12 Nordeste 31 Nordeste 0 1010.8 0.7 21
2019-06-03 19:00:00 30.4 12 Este 26 Nordeste 0 1010.6 0.5 23
2019-06-03 18:00:00 31.8 14 Este 27 Este 0 1010.4 0 23
2019-06-03 17:00:00 32.1 14 Este 33 Nordeste 0 1010.1 -0.2 24
2019-06-03 16:00:00 32.6 14 Nordeste 30 Este 0 1010.1 -0.6 20
2019-06-03 15:00:00 31.2 18 Este 34 Este 0 1010.4 -0.6 30
2019-06-03 14:00:00 32.6 14 Este 29 Este 0 1010.3 -0.6 19
2019-06-03 13:00:00 31.5 11 Este 24 Este 0 1010.7 0 29
2019-06-03 12:00:00 29.9 5 Sur 15 Sur 0 1011 0.6 32
2019-06-03 11:00:00 29.4 8 Sur 12 Sur 0 1010.9 0.9 30
2019-06-03 10:00:00 28.9 3 Este 6 Este 0 1010.7 0.8 31
2019-06-03 09:00:00 26 0 Calma 5 Oeste 0 1010.4 0.3 33
2019-06-03 08:00:00 22.8 4 Sudoeste 6 Oeste 0 1010 -0.1 34
2019-06-03 07:00:00 22.2 3 Sudoeste 9 Oeste 0 1009.9 -0.8 32
2019-06-03 06:00:00 22.6 3 Oeste 13 Sudoeste 0 1010.1 -0.9 40
2019-06-03 05:00:00 23.4 10 Sudoeste 14 Sudoeste 0 1010.1 -1.3 41
2019-06-03 04:00:00 23.7 7 Oeste 14 Sudoeste 0 1010.7 -1 39
2019-06-03 03:00:00 24.4 5 Sudeste 15 Oeste 0 1011 -1 32
2019-06-03 02:00:00 24.5 8 Sudoeste 10 Sudoeste 0 1011.4 0.1 37
2019-06-03 01:00:00 25.1 4 Nordeste 14 Oeste 0 1011.7 1.8 41
2019-06-03 00:00:00 24.4 5 Sudoeste 10 Oeste 0 1012 3 52
2019-06-02 23:00:00 24.5 2 Sudeste 5 Sudeste 0 1011.3 2.7 55
2019-06-02 22:00:00 25.6 3 Sudoeste 9 Oeste 0 1009.9 2.1 51
2019-06-02 21:00:00 25.9 6 Sur 9 Sudoeste 0 1009 1.2 53
2019-06-02 20:00:00 27.2 5 Sur 9 Sudeste 0 1008.6 0.9 51
2019-06-02 19:00:00 28.4 5 Sudeste 16 Sur 0 1007.8 -0.3 46
2019-06-02 18:00:00 28 10 Sur 15 Sur 0 1007.8 -0.5 54
2019-06-02 17:00:00 28.6 7 Sur 17 Sur 0 1007.7 -1.3 51
2019-06-02 16:00:00 26.7 14 Sur 25 Sur 0 1008.1 -1.2 60
2019-06-02 15:00:00 26.7 15 Sur 24 Sur 0 1008.3 -0.9 61
2019-06-02 14:00:00 26 12 Sur 20 Sur 0 1009 0.1 62
2019-06-02 13:00:00 25.1 14 Sur 21 Sur 0 1009.3 0.8 68
2019-06-02 12:00:00 25.3 5 Sur 14 Sur 0 1009.2 0.9 67
2019-06-02 11:00:00 25.2 6 Sur 13 Sur 0 1008.9 1.2 69
2019-06-02 10:00:00 24.9 0 Calma 10 Este 0 1008.5 1.1 64
2019-06-02 09:00:00 23 3 Norte 8 Nordeste 0 1008.3 0.7 69
2019-06-02 08:00:00 20.4 2 Norte 8 Sudoeste 0 1007.7 0.5 81
2019-06-02 07:00:00 20.2 3 Sudoeste 10 Norte 0 1007.4 -0.3 78
2019-06-02 06:00:00 20.4 5 Nordeste 14 Nordeste 0 1007.6 -0.4 83
2019-06-02 05:00:00 20.3 6 Oeste 14 Oeste 0 1007.2 -1.8 74
2019-06-02 04:00:00 19.9 6 Oeste 10 Oeste 0 1007.7 -2 87
2019-06-02 03:00:00 19.9 0 Calma 12 Nordeste 0 1008 -1.9 86
2019-06-02 02:00:00 20.4 6 Este 9 Este 0 1009 0.2 85
2019-06-02 01:00:00 20.2 0 Calma 9 Sudoeste 0 1009.7 1.6 86
2019-06-02 00:00:00 20.8 5 Sur 9 Sur 0 1009.9 2.6 82
2019-06-01 23:00:00 21.2 6 Nordeste 10 Nordeste 0 1008.8 1.9 78
2019-06-01 22:00:00 21.3 4 Este 9 Este 0 1008.1 1.4 76
2019-06-01 21:00:00 21.8 6 Este 11 Sur 0 1007.3 0.3 75
2019-06-01 20:00:00 22.5 8 Sur 18 Sur 0 1006.9 -0.5 72
2019-06-01 19:00:00 23.6 13 Sur 26 Sur 0 1006.7 -1 67
2019-06-01 18:00:00 24.7 18 Sur 29 Sur 0 1007 -0.9 65
2019-06-01 17:00:00 24.6 17 Sur 24 Sudoeste 0 1007.4 -1.2 63
2019-06-01 16:00:00 24.5 10 Sudoeste 23 Sur 0 1007.7 -1.4 65
2019-06-01 15:00:00 24.8 9 Sudoeste 22 Sur 0 1007.9 -1.3 64
2019-06-01 14:00:00 23.7 9 Sudeste 21 Sudeste 0 1008.6 -0.6 66
2019-06-01 13:00:00 23.6 12 Sudeste 19 Sudeste 0 1009.1 0 68
2019-06-01 12:00:00 23.5 12 Sudeste 17 Sudeste 0 1009.2 1 67
2019-06-01 11:00:00 22.7 11 Sudoeste 17 Sur 0 1009.2 1.6 73
2019-06-01 10:00:00 22.7 9 Sur 16 Sur 0 1009.1 1.5 73
2019-06-01 09:00:00 21.6 4 Sudeste 10 Sudeste 0 1008.2 1.4 75
2019-06-01 08:00:00 19.8 2 Norte 16 Sudoeste 0 1007.6 1 81
2019-06-01 07:00:00 19.3 8 Sudoeste 16 Sudoeste 0 1007.6 -0.3 85
2019-06-01 06:00:00 19.4 4 Sur 9 Sudoeste 0 1006.8 -1.7 85
2019-06-01 05:00:00 19.3 2 Oeste 6 Oeste 0 1006.6 -2.1 82
2019-06-01 04:00:00 19.7 4 Norte 8 Este 0 1007.9 -0.9 85
2019-06-01 03:00:00 19.9 3 Este 10 Sudoeste 0 1008.5 -0.5 84
2019-06-01 02:00:00 20 8 Sudoeste 15 Sur 0 1008.7 0 84
2019-06-01 01:00:00 19.8 5 Sudoeste 9 Sudoeste 0 1008.8 0.6 84
2019-06-01 00:00:00 20 3 Sur 8 Sudeste 0 1009 1.5 83
2019-05-31 23:00:00 20.2 4 Sur 9 Sur 0 1008.7 1.4 81
2019-05-31 22:00:00 20.5 4 Sur 13 Sudeste 0 1008.2 0.6 81
2019-05-31 21:00:00 21 6 Sur 11 Sur 0 1007.5 -0.4 78
2019-05-31 20:00:00 21.7 6 Sudoeste 15 Sur 0 1007.3 -1.1 75
2019-05-31 19:00:00 23.1 8 Sur 16 Sudoeste 0 1007.6 -1.5 69
2019-05-31 18:00:00 23.8 7 Sudeste 15 Sudeste 0 1007.9 -1.6 68
2019-05-31 17:00:00 24.3 9 Sur 18 Sur 0 1008.4 -1.3 65
2019-05-31 16:00:00 24.5 9 Sur 19 Sudeste 0 1009.1 -0.5 67
2019-05-31 15:00:00 24 13 Sudeste 21 Sudeste 0 1009.5 0 68
2019-05-31 14:00:00 24.2 8 Sur 20 Sur 0 1009.7 0 66
2019-05-31 13:00:00 24.1 14 Sur 19 Sur 0 1009.6 0 66
2019-05-31 12:00:00 23.6 13 Sur 18 Sur 0 1009.5 0.3 66
2019-05-31 11:00:00 23 8 Sur 16 Sur 0 1009.7 0.8 67
2019-05-31 10:00:00 21.9 10 Sur 15 Sur 0 1009.6 1 70
2019-05-31 09:00:00 21.1 6 Sur 12 Sudoeste 0 1009.2 0.9 71
2019-05-31 08:00:00 18.6 5 Oeste 7 Oeste 0 1008.9 0.3 69
2019-05-31 07:00:00 17.9 3 Oeste 5 Oeste 0 1008.6 -0.3 72
2019-05-31 06:00:00 18.2 3 Oeste 10 Oeste 0 1008.3 -1.3 71
2019-05-31 05:00:00 18.5 4 Oeste 10 Oeste 0 1008.6 -1.5 73
2019-05-31 04:00:00 18.7 6 Oeste 12 Oeste 0 1008.9 -1.6 72
2019-05-31 03:00:00 19 6 Oeste 9 Noroeste 0 1009.6 -1 71
2019-05-31 02:00:00 19.4 3 Sudoeste 11 Sudoeste 0 1010.1 -0.4 70
2019-05-31 01:00:00 19.7 4 Este 8 Sudeste 0 1010.5 0.2 73
2019-05-31 00:00:00 20.2 5 Sudeste 9 Sudeste 0 1010.6 0.8 72
2019-05-30 23:00:00 20.5 5 Sudeste 9 Este 0 1010.5 1.1 71
2019-05-30 22:00:00 20.7 5 Sudeste 10 Sudeste 0 1010.3 1 72
2019-05-30 21:00:00 21.1 4 Sudeste 11 Este 0 1009.8 0.1 72
2019-05-30 20:00:00 21.4 5 Este 15 Nordeste 0 1009.4 -0.8 72
2019-05-30 19:00:00 22.1 12 Este 19 Sudeste 0 1009.3 -1.1 69
2019-05-30 18:00:00 24.2 9 Sur 17 Sudeste 0 1009.7 -1.1 60
2019-05-30 17:00:00 23.6 11 Sudeste 19 Sudeste 0 1010.2 -0.9 64
2019-05-30 16:00:00 23.6 13 Sur 22 Sur 0 1010.4 -0.9 65
2019-05-30 15:00:00 23.8 14 Sur 21 Sur 0 1010.8 -0.5 63
2019-05-30 14:00:00 23.7 13 Sur 20 Sudoeste 0 1011.1 0.2 66
2019-05-30 13:00:00 23.2 15 Sur 22 Sur 0 1011.3 0.6 66
2019-05-30 12:00:00 23 12 Sur 20 Sur 0 1011.3 0.7 67
2019-05-30 11:00:00 22.8 9 Sur 14 Sudoeste 0 1010.9 0.5 66
2019-05-30 10:00:00 21.8 8 Este 12 Este 0 1010.7 0.5 63
2019-05-30 09:00:00 21.2 5 Este 8 Este 0 1010.6 0.8 63
2019-05-30 08:00:00 18.8 3 Noroeste 10 Oeste 0 1010.4 0.5 67
2019-05-30 07:00:00 18.3 6 Oeste 10 Oeste 0 1010.2 0.2 70
2019-05-30 06:00:00 18.4 5 Oeste 7 Oeste 0 1009.8 -0.6 69
2019-05-30 05:00:00 18.6 4 Norte 6 Norte 0 1009.9 -1.1 71
2019-05-30 04:00:00 19 3 Noroeste 7 Oeste 0 1010 -1.2 71
2019-05-30 03:00:00 19 3 Sudoeste 8 Sur 0 1010.4 -1.3 68
2019-05-30 02:00:00 19.7 3 Sudeste 10 Sudeste 0 1011 -0.5 70
2019-05-30 01:00:00 20.1 5 Noroeste 8 Oeste 0 1011.2 0.2 65
2019-05-30 00:00:00 20.3 3 Sudeste 18 Oeste 0 1011.7 1.3 65
2019-05-29 23:00:00 20.7 11 Oeste 18 Oeste 0 1011.5 1.5 61
2019-05-29 22:00:00 21.1 6 Sudeste 26 Oeste 0 1011 1.3 64
2019-05-29 21:00:00 21.7 6 Sudeste 14 Sur 0 1010.4 0.9 64
2019-05-29 20:00:00 22.7 9 Este 16 Norte 0 1010 0.2 63
2019-05-29 19:00:00 25.4 5 Nordeste 16 Norte 0 1009.7 -0.6 48
2019-05-29 18:00:00 26.5 10 Noroeste 31 Oeste 0 1009.5 -1.2 49
2019-05-29 17:00:00 25.1 10 Sudoeste 22 Sur 0 1009.8 -1.4 53
2019-05-29 16:00:00 24.8 13 Sur 21 Sur 0 1010.3 -1.4 54
2019-05-29 15:00:00 24.6 10 Sudoeste 19 Sudeste 0 1010.7 -1.1 56
2019-05-29 14:00:00 23.9 12 Sudeste 19 Sudeste 0 1011.2 -0.6 58
2019-05-29 13:00:00 23.7 8 Sudeste 20 Sur 0 1011.7 0.1 56
2019-05-29 12:00:00 23.9 9 Sudeste 19 Sudeste 0 1011.8 0.3 60
2019-05-29 11:00:00 22.4 10 Sudeste 18 Sudeste 0 1011.8 0.7 61
2019-05-29 10:00:00 22.1 10 Sudeste 15 Sudeste 0 1011.6 1 62
2019-05-29 09:00:00 21.8 8 Sudeste 13 Sudeste 0 1011.5 1.2 64
2019-05-29 08:00:00 19.3 5 Oeste 9 Oeste 0 1011.1 0.7 70
2019-05-29 07:00:00 18.6 3 Noroeste 6 Norte 0 1010.6 0 71
2019-05-29 06:00:00 18.5 2 Sur 6 Noroeste 0 1010.3 -0.7 72
2019-05-29 05:00:00 19.1 5 Noroeste 10 Oeste 0 1010.4 -0.9 68
2019-05-29 04:00:00 19.3 4 Oeste 11 Oeste 0 1010.6 -1.1 66
2019-05-29 03:00:00 19.5 8 Oeste 13 Noroeste 0 1011 -0.9 65
2019-05-29 02:00:00 19.8 6 Sudeste 13 Sudeste 0 1011.3 -0.2 70
2019-05-29 01:00:00 20.2 7 Oeste 15 Oeste 0 1011.7 0.8 65
2019-05-29 00:00:00 20.4 7 Oeste 21 Oeste 0 1011.9 1.5 64
2019-05-28 23:00:00 20.9 3 Sudoeste 23 Oeste 0 1011.5 1.6 62
2019-05-28 22:00:00 21.3 12 Oeste 28 Noroeste 0 1010.9 1.3 61
2019-05-28 21:00:00 22.1 19 Oeste 31 Oeste 0 1010.4 0.6 57
2019-05-28 20:00:00 23.4 6 Noroeste 30 Oeste 0 1009.9 0.3 54
2019-05-28 19:00:00 25.4 11 Sudoeste 27 Sudoeste 0 1009.6 -0.2 48
2019-05-28 18:00:00 26.5 13 Sur 30 Sudoeste 0 1009.8 -0.1 47
2019-05-28 17:00:00 27.1 13 Sudeste 24 Este 0 1009.6 -0.5 47
2019-05-28 16:00:00 25.5 19 Este 27 Este 0 1009.8 -0.6 51
2019-05-28 15:00:00 27.2 14 Sudeste 26 Este 0 1009.9 -1.1 48
2019-05-28 14:00:00 25.3 15 Este 30 Este 0 1010.1 -0.6 54
2019-05-28 13:00:00 24.8 17 Este 28 Este 0 1010.4 -0.4 55
2019-05-28 12:00:00 23.6 16 Este 31 Este 0 1011 0.6 61
2019-05-28 11:00:00 23.4 18 Este 26 Este 0 1010.7 0.6 61
2019-05-28 10:00:00 23.7 9 Sudeste 21 Sudeste 0 1010.8 0.8 58
2019-05-28 09:00:00 22.7 8 Sudeste 12 Sudeste 0 1010.4 0.9 61
2019-05-28 08:00:00 21.2 5 Nordeste 18 Norte 0 1010.1 0.8 66
2019-05-28 07:00:00 20.1 9 Norte 17 Norte 0 1010 0.6 71
2019-05-28 06:00:00 19.6 3 Sudeste 8 Sudoeste 0 1009.5 -0.2 73
2019-05-28 05:00:00 19.8 5 Sudeste 8 Sur 0 1009.3 -0.7 74
2019-05-28 04:00:00 20 3 Sudeste 8 Sudeste 0 1009.4 -0.7 71
2019-05-28 03:00:00 20.7 6 Sudeste 22 Oeste 0 1009.7 -0.3 67
2019-05-28 02:00:00 20.8 13 Oeste 29 Oeste 0 1010 0.3 66
2019-05-28 01:00:00 21 14 Oeste 29 Oeste 0 1010.1 1 65
2019-05-28 00:00:00 21.6 5 Sudoeste 20 Oeste 0 1010 1.2 61
2019-05-27 23:00:00 21.9 7 Sudoeste 20 Oeste 0 1009.7 1.3 59
2019-05-27 22:00:00 22.7 6 Oeste 19 Oeste 0 1009.1 0.9 56
2019-05-27 21:00:00 23.4 5 Sudeste 22 Oeste 0 1008.8 0.3 52
2019-05-27 20:00:00 25.3 7 Oeste 35 Oeste 0 1008.4 -0.4 46
2019-05-27 19:00:00 27.2 12 Este 22 Oeste 0 1008.2 -0.6 40
2019-05-27 18:00:00 28.3 13 Este 27 Este 0 1008.5 -0.4 36
2019-05-27 17:00:00 30.3 12 Este 26 Nordeste 0 1008.8 -0.3 29
2019-05-27 16:00:00 30.5 12 Nordeste 32 Nordeste 0 1008.8 -0.7 23
2019-05-27 15:00:00 30.3 15 Nordeste 30 Este 0 1008.9 -0.8 21
2019-05-27 14:00:00 29.5 12 Este 22 Este 0 1009.1 -0.6 28
2019-05-27 13:00:00 28.4 6 Sudeste 13 Sur 0 1009.5 -0.2 33
2019-05-27 12:00:00 26.9 8 Sudeste 12 Sudeste 0 1009.7 0.2 40
2019-05-27 11:00:00 26.4 5 Sudeste 12 Sudeste 0 1009.7 0.5 41
2019-05-27 10:00:00 25.3 4 Sudeste 9 Sudeste 0 1009.7 0.7 44
2019-05-27 09:00:00 23.9 6 Nordeste 8 Nordeste 0 1009.5 0.9 44
2019-05-27 08:00:00 20.6 2 Oeste 13 Oeste 0 1009.2 0.4 50
2019-05-27 07:00:00 20.3 8 Oeste 12 Oeste 0 1009 -0.1 50
2019-05-27 06:00:00 20.1 7 Oeste 12 Oeste 0 1008.6 -1 52
2019-05-27 05:00:00 20.4 5 Oeste 14 Noroeste 0 1008.8 -1.3 56
2019-05-27 04:00:00 20.7 9 Oeste 19 Oeste 0 1009.1 -1.3 57
2019-05-27 03:00:00 20.5 5 Oeste 9 Oeste 0 1009.6 -1.1 61
2019-05-27 02:00:00 20.9 6 Oeste 12 Sudoeste 0 1010.1 -0.3 61
2019-05-27 01:00:00 21.3 4 Sudoeste 20 Oeste 0 1010.4 0.5 57
2019-05-27 00:00:00 21.3 14 Oeste 23 Oeste 0 1010.7 1 59
2019-05-26 23:00:00 22 7 Oeste 16 Oeste 0 1010.4 1.1 54
2019-05-26 22:00:00 22.5 8 Oeste 23 Oeste 0 1009.9 1.1 52
2019-05-26 21:00:00 23.3 11 Oeste 18 Oeste 0 1009.7 0.8 52
2019-05-26 20:00:00 24.5 5 Sudoeste 31 Noroeste 0 1009.3 0.5 46
2019-05-26 19:00:00 26.4 19 Oeste 28 Noroeste 0 1008.8 -0.3 45
2019-05-26 18:00:00 27.6 10 Este 34 Oeste 0 1008.9 -0.6 40
2019-05-26 17:00:00 28.1 13 Oeste 32 Oeste 0 1008.8 -1.5 36
2019-05-26 16:00:00 27.9 12 Sudeste 32 Oeste 0 1009.1 -1.5 36
2019-05-26 15:00:00 27 12 Este 29 Este 0 1009.5 -1.2 42
2019-05-26 14:00:00 25.9 19 Este 26 Este 0 1010.3 -0.7 48
2019-05-26 13:00:00 27 11 Este 21 Nordeste 0 1010.6 -0.2 40
2019-05-26 12:00:00 25.6 11 Este 24 Nordeste 0 1010.7 0.2 42
2019-05-26 11:00:00 24.3 11 Nordeste 21 Este 0 1011 0.5 50
2019-05-26 10:00:00 23.3 10 Oeste 21 Oeste 0 1010.8 0.4 52
2019-05-26 09:00:00 22 6 Sudeste 21 Oeste 0 1010.5 0.3 56
2019-05-26 08:00:00 20 3 Sudeste 17 Noroeste 0 1010.5 0.5 64
2019-05-26 07:00:00 18.7 4 Oeste 12 Norte 0 1010.4 0 68
2019-05-26 06:00:00 18.5 3 Noroeste 7 Noroeste 0 1010.2 -0.8 69
2019-05-26 05:00:00 18.4 2 Norte 6 Sur 0 1010 -1.3 70
2019-05-26 04:00:00 18.9 4 Sur 8 Sudeste 0 1010.4 -1.1 70
2019-05-26 03:00:00 19.5 7 Sudeste 22 Norte 0 1011 -1 65
2019-05-26 02:00:00 19.6 9 Noroeste 42 Noroeste 0 1011.3 -0.5 63
2019-05-26 01:00:00 19.7 19 Norte 42 Noroeste 0 1011.5 0.1 64
2019-05-26 00:00:00 19.7 13 Noroeste 34 Noroeste 0 1012 1.1 62
2019-05-25 23:00:00 20 8 Noroeste 40 Noroeste 0 1011.8 1.5 61
2019-05-25 22:00:00 20.3 13 Noroeste 45 Oeste 0 1011.4 0.9 65
2019-05-25 21:00:00 20.7 22 Noroeste 47 Oeste 0 1010.9 0.3 60
2019-05-25 20:00:00 21.1 23 Noroeste 46 Noroeste 0 1010.3 -0.4 59
2019-05-25 19:00:00 22.7 26 Noroeste 45 Noroeste 0 1010.5 -0.8 54
2019-05-25 18:00:00 24.6 17 Noroeste 39 Noroeste 0 1010.6 -1.2 47
2019-05-25 17:00:00 25.5 16 Noroeste 34 Noroeste 0 1010.7 -1.4 49
2019-05-25 16:00:00 25.1 8 Norte 31 Norte 0 1011.3 -1.2 51
2019-05-25 15:00:00 25.9 9 Noroeste 27 Noroeste 0 1011.8 -0.8 52
2019-05-25 14:00:00 24.8 16 Norte 29 Nordeste 0 1012.1 -0.2 54
2019-05-25 13:00:00 24 15 Nordeste 35 Nordeste 0 1012.5 0.3 57
2019-05-25 12:00:00 23.6 15 Nordeste 32 Nordeste 0 1012.6 0.6 59
2019-05-25 11:00:00 23.5 15 Nordeste 28 Este 0 1012.3 0.6 58
2019-05-25 10:00:00 22.8 12 Este 23 Nordeste 0 1012.2 0.7 63
2019-05-25 09:00:00 21.9 7 Nordeste 15 Este 0 1012 0.4 65
2019-05-25 08:00:00 19.9 7 Nordeste 21 Nordeste 0 1011.7 0.5 71
2019-05-25 07:00:00 19.6 9 Norte 24 Nordeste 0 1011.5 0.1 70
2019-05-25 06:00:00 19.6 6 Nordeste 18 Nordeste 0 1011.6 0 71
2019-05-25 05:00:00 19.5 3 Sudeste 9 Nordeste 0 1011.2 -0.9 70
2019-05-25 04:00:00 19.9 5 Norte 16 Este 0 1011.4 -1.2 70
2019-05-25 03:00:00 19.9 4 Sudoeste 16 Oeste 0 1011.6 -0.8 65
2019-05-25 02:00:00 20.3 6 Noroeste 18 Oeste 0 1012.1 -0.1 59
2019-05-25 01:00:00 20.5 5 Sur 17 Oeste 0 1012.6 0.8 58
2019-05-25 00:00:00 20.6 7 Oeste 18 Oeste 0 1012.4 1.1 56
2019-05-24 23:00:00 20.7 3 Sur 27 Oeste 0 1012.2 1.1 60
2019-05-24 22:00:00 21.2 12 Noroeste 27 Noroeste 0 1011.8 1.1 62
2019-05-24 21:00:00 22.1 8 Noroeste 23 Oeste 0 1011.3 0.3 56
2019-05-24 20:00:00 23.8 7 Sur 23 Nordeste 0 1011.1 -0.1 45
2019-05-24 19:00:00 25.3 14 Este 30 Nordeste 0 1010.7 -0.8 42
2019-05-24 18:00:00 26.4 10 Este 33 Nordeste 0 1011 -1 36
2019-05-24 17:00:00 26.1 15 Este 38 Nordeste 0 1011.2 -1.5 40
2019-05-24 16:00:00 26 21 Este 35 Este 0 1011.5 -1.8 40
2019-05-24 15:00:00 26.2 14 Este 32 Nordeste 0 1012 -1.3 39
2019-05-24 14:00:00 25.8 13 Nordeste 31 Nordeste 0 1012.7 -0.6 44
2019-05-24 13:00:00 25.4 16 Norte 31 Nordeste 0 1013.3 0.4 45
2019-05-24 12:00:00 24.8 14 Norte 29 Norte 0 1013.3 0.7 48
2019-05-24 11:00:00 23.9 12 Norte 34 Nordeste 0 1013.3 1 52
2019-05-24 10:00:00 23.1 14 Nordeste 30 Nordeste 0 1012.9 1.1 54
2019-05-24 09:00:00 22 11 Nordeste 26 Nordeste 0 1012.6 1.1 58
2019-05-24 08:00:00 20 4 Nordeste 15 Norte 0 1012.3 0.8 63
2019-05-24 07:00:00 19.5 3 Este 33 Norte 0 1011.8 0.4 64
2019-05-24 06:00:00 19.8 10 Norte 31 Norte 0 1011.5 -0.1 61
2019-05-24 05:00:00 19.9 19 Norte 35 Norte 0 1011.5 -0.9 62
2019-05-24 04:00:00 20.1 11 Norte 24 Norte 0 1011.4 -1.6 61
2019-05-24 03:00:00 20.2 15 Norte 33 Noroeste 0 1011.6 -2.1 59
2019-05-24 02:00:00 20.2 15 Norte 27 Norte 0 1012.4 -1 62
2019-05-24 01:00:00 20.1 10 Noroeste 23 Noroeste 0 1013 0 61
2019-05-24 00:00:00 20.1 7 Norte 21 Noroeste 0 1013.7 1.6 62
2019-05-23 23:00:00 20.2 10 Norte 24 Norte 0 1013.4 1.7 62
2019-05-23 22:00:00 20.5 12 Norte 24 Noroeste 0 1013 1.1 62
2019-05-23 21:00:00 21 11 Norte 28 Norte 0 1012.1 -0.2 59
2019-05-23 20:00:00 21.6 14 Noroeste 36 Noroeste 0 1011.7 -0.3 57
2019-05-23 19:00:00 22.5 18 Norte 42 Noroeste 0 1011.9 -0.6 56
2019-05-23 18:00:00 24.1 20 Noroeste 51 Noroeste 0 1012.3 -0.3 53
2019-05-23 17:00:00 25 15 Noroeste 36 Noroeste 0 1012 -0.5 49
2019-05-23 16:00:00 25.1 15 Norte 36 Norte 0 1012.5 -0.6 49
2019-05-23 15:00:00 25.3 13 Norte 37 Nordeste 0 1012.6 -0.8 49
2019-05-23 14:00:00 24.2 19 Nordeste 41 Nordeste 0 1012.5 -0.9 53
2019-05-23 13:00:00 24.2 17 Nordeste 36 Nordeste 0 1013.1 -0.4 50
2019-05-23 12:00:00 24 13 Norte 32 Norte 0 1013.4 0.2 53
2019-05-23 11:00:00 22.8 11 Norte 32 Norte 0 1013.4 0.5 58
2019-05-23 10:00:00 22.1 11 Norte 30 Noroeste 0 1013.5 1 60
2019-05-23 09:00:00 21.1 10 Norte 32 Norte 0 1013.2 0.8 61
2019-05-23 08:00:00 20.2 4 Nordeste 28 Nordeste 0 1012.9 0.8 65
2019-05-23 07:00:00 20.2 11 Norte 26 Norte 0 1012.5 0.1 64
2019-05-23 06:00:00 20.1 15 Norte 33 Noroeste 0 1012.4 -0.6 64
2019-05-23 05:00:00 20.2 12 Norte 37 Norte 0 1012.1 -1.2 65
2019-05-23 04:00:00 20.1 12 Norte 35 Norte 0 1012.4 -1.4 67
2019-05-23 03:00:00 20.1 14 Norte 37 Norte 0 1013 -1.1 66
2019-05-23 02:00:00 20.3 10 Norte 31 Norte 0 1013.3 -0.6 67
2019-05-23 01:00:00 20 9 Norte 26 Norte 0 1013.8 0.4 73
2019-05-23 00:00:00 20.5 12 Norte 27 Nordeste 0 1014.1 1.2 65
2019-05-22 23:00:00 20.7 10 Norte 37 Norte 0 1013.9 1.4 63
2019-05-22 22:00:00 20.7 12 Norte 32 Norte 0 1013.4 1 66
2019-05-22 21:00:00 21.1 16 Norte 33 Norte 0 1012.9 0.6 64
2019-05-22 20:00:00 21.5 15 Noroeste 36 Noroeste 0 1012.5 0.2 61
2019-05-22 19:00:00 22.8 19 Norte 39 Norte 0 1012.4 -0.3 56
2019-05-22 18:00:00 22.9 18 Noroeste 43 Noroeste 0 1012.3 -0.4 60
2019-05-22 17:00:00 24.9 12 Norte 35 Noroeste 0 1012.3 -0.9 50
2019-05-22 16:00:00 24.9 12 Nordeste 34 Nordeste 0 1012.7 -0.4 48
2019-05-22 15:00:00 24.5 14 Norte 36 Norte 0 1012.7 -0.6 46
2019-05-22 14:00:00 24 21 Norte 41 Norte 0 1013.2 -0.2 50
2019-05-22 13:00:00 24.5 12 Noroeste 36 Norte 0 1013.1 0 48
2019-05-22 12:00:00 23.1 17 Nordeste 33 Nordeste 0 1013.3 0.9 53
2019-05-22 11:00:00 22.1 16 Norte 37 Norte 0 1013.4 1.4 60
2019-05-22 10:00:00 20.8 11 Nordeste 24 Nordeste 0 1013.1 1.4 71
2019-05-22 09:00:00 20.6 10 Norte 23 Norte 0 1012.4 0.9 67
2019-05-22 08:00:00 20.2 8 Nordeste 17 Nordeste 0 1012 0.5 70
2019-05-22 07:00:00 20.1 7 Norte 30 Norte 0 1011.7 -0.2 69
2019-05-22 06:00:00 20.2 11 Norte 22 Norte 0 1011.5 -1 67
2019-05-22 05:00:00 20.2 12 Norte 20 Norte 0 1011.5 -1.4 66
2019-05-22 04:00:00 19.9 7 Nordeste 12 Nordeste 0 1011.9 -1.4 67
2019-05-22 03:00:00 19.9 5 Nordeste 17 Nordeste 0 1012.5 -1 68
2019-05-22 02:00:00 20.1 3 Norte 16 Norte 0 1012.9 -0.2 64
2019-05-22 01:00:00 20.3 7 Norte 22 Norte 0 1013.3 0.6 64
2019-05-22 00:00:00 20.3 5 Norte 17 Norte 0 1013.5 1.3 64